Weather at Salt Lake City International Airport

Public forecast

Using degrees Fahrenheit for public forecast. Weather courtesy of forecast.io.

Current aviation weather report (METAR) for Salt Lake City International Airport

Retrieved 2021/07/28 13:54 UTC (17 minutes ago):

KSLC 281354Z 16011KT 10SM FEW110 BKN160 BKN250 26/14 A3016 RMK AO2 SLP148 T02610144

Aviation forecast (TAF) for Salt Lake City International Airport

Retrieved 2021/07/28 12:22 UTC (2 hours ago):

TAF KSLC 281120Z 2812/2918 15004KT P6SM SCT150 FM281900 33008KT P6SM VCSH FEW080 SCT120 BKN150 FM290300 15009KT P6SM SCT100 BKN150